Time;durP1;ratioP1;P1;durP2;ratioP2;P2;SDS_P1;SDS_P2;PMS_P1;PMS_P2;Temp;Humidity;BMP_temperature;BMP_pressure;BME280_temperature;BME280_humidity;BME280_pressure;Samples;Min_cycle;Max_cycle;Signal;HPM_P1;HPM_P2
2022/08/07 00:01:45;;;;;;;;;;;13.80;99.90;;;;;;5077422;28;19954;-68
2022/08/07 00:04:12;;;;;;;;;;;13.90;99.90;;;;;;5077266;28;20285;-68
2022/08/07 00:06:39;;;;;;;;;;;13.90;99.90;;;;;;5076888;28;19969;-68
2022/08/07 00:09:05;;;;;;;;;;;13.90;99.90;;;;;;5076857;28;20375;-67
2022/08/07 00:11:32;;;;;;;;;;;14.00;99.90;;;;;;5076986;28;19909;-68
2022/08/07 00:13:59;;;;;;;;;;;14.00;99.90;;;;;;5073501;28;19909;-68
2022/08/07 00:16:25;;;;;;;;;;;14.00;99.90;;;;;;5076492;28;19920;-68
2022/08/07 00:18:52;;;;;;;;;;;14.10;99.90;;;;;;5076467;28;20337;-68
2022/08/07 00:21:19;;;;;;;;;;;14.10;99.90;;;;;;5076373;28;19912;-68
2022/08/07 00:23:45;;;;;;;;;;;14.10;99.90;;;;;;5076392;28;19912;-68
2022/08/07 00:26:12;;;;;;;;;;;14.10;99.90;;;;;;5076429;28;19952;-68
2022/08/07 00:28:39;;;;;;;;;;;14.20;99.90;;;;;;5075821;28;19916;-68
2022/08/07 00:31:09;;;;;;;;;;;14.20;99.90;;;;;;5076235;28;19920;-68
2022/08/07 00:33:36;;;;;;;;;;;14.20;99.90;;;;;;5076265;28;20278;-68
2022/08/07 00:36:04;;;;;;;;;;;14.30;99.90;;;;;;5075678;28;20381;-68
2022/08/07 00:38:31;;;;;;;;;;;14.40;99.90;;;;;;5076290;28;19909;-68
2022/08/07 00:40:58;;;;;;;;;;;14.40;99.90;;;;;;5076244;28;19909;-68
2022/08/07 00:43:25;;;;;;;;;;;14.40;99.90;;;;;;5076489;28;19962;-68
2022/08/07 00:45:52;;;;;;;;;;;14.40;99.90;;;;;;5076278;28;20003;-67
2022/08/07 00:48:18;;;;;;;;;;;14.40;99.90;;;;;;5075736;28;19916;-68
2022/08/07 00:50:45;;;;;;;;;;;14.50;99.90;;;;;;5075845;28;20048;-68
2022/08/07 00:53:12;;;;;;;;;;;14.60;99.90;;;;;;5075931;28;19917;-68
2022/08/07 00:55:38;;;;;;;;;;;14.70;99.90;;;;;;5075746;28;20422;-68
2022/08/07 00:58:05;;;;;;;;;;;14.70;99.90;;;;;;5074985;28;19996;-68
2022/08/07 01:00:32;;;;;;;;;;;14.80;99.90;;;;;;5074362;28;19935;-68
2022/08/07 01:02:59;;;;;;;;;;;14.80;99.90;;;;;;5075739;28;19908;-67
2022/08/07 01:05:26;;;;;;;;;;;14.90;99.90;;;;;;5075479;28;20335;-68
2022/08/07 01:07:53;;;;;;;;;;;15.00;99.90;;;;;;5075561;28;19916;-68
2022/08/07 01:10:19;;;;;;;;;;;15.10;99.90;;;;;;5075381;28;20339;-68
2022/08/07 01:12:47;;;;;;;;;;;15.20;99.90;;;;;;5074873;28;19912;-68
2022/08/07 01:15:14;;;;;;;;;;;15.60;99.90;;;;;;5075167;28;19909;-68
2022/08/07 01:17:41;;;;;;;;;;;15.80;99.90;;;;;;5075389;28;19908;-67
2022/08/07 01:20:09;;;;;;;;;;;16.00;99.90;;;;;;5074955;28;19962;-68
2022/08/07 01:22:39;;;;;;;;;;;16.20;99.70;;;;;;5075391;28;20385;-68
2022/08/07 01:25:07;;;;;;;;;;;16.30;99.80;;;;;;5075235;28;19916;-68
2022/08/07 01:27:34;;;;;;;;;;;16.40;99.90;;;;;;5075312;28;20015;-68
2022/08/07 01:30:01;;;;;;;;;;;16.80;99.10;;;;;;5075038;28;19913;-68
2022/08/07 01:32:28;;;;;;;;;;;17.00;98.30;;;;;;5075164;28;20278;-67
2022/08/07 01:34:55;;;;;;;;;;;16.90;98.60;;;;;;5074919;28;19913;-67
2022/08/07 01:37:22;;;;;;;;;;;16.60;99.10;;;;;;5075018;28;19909;-67
2022/08/07 01:39:49;;;;;;;;;;;16.40;99.60;;;;;;5074925;28;20011;-68
2022/08/07 01:42:16;;;;;;;;;;;16.30;99.90;;;;;;5074828;28;19913;-67
2022/08/07 01:44:43;;;;;;;;;;;16.00;99.90;;;;;;5074747;28;19925;-67
2022/08/07 01:47:09;;;;;;;;;;;15.90;99.90;;;;;;5074938;28;19913;-67
2022/08/07 01:49:36;;;;;;;;;;;15.80;99.90;;;;;;5074625;28;20011;-67
2022/08/07 01:52:05;;;;;;;;;;;15.70;99.90;;;;;;5074477;28;20345;-67
2022/08/07 01:54:34;;;;;;;;;;;15.60;99.30;;;;;;5074522;28;20315;-67
2022/08/07 01:57:16;;;;;;;;;;;15.50;99.60;;;;;;5074681;28;19961;-67
2022/08/07 01:59:49;;;;;;;;;;;15.40;99.90;;;;;;5074551;28;19912;-67
2022/08/07 02:02:19;;;;;;;;;;;15.50;99.60;;;;;;5074484;28;19920;-70
2022/08/07 02:04:52;;;;;;;;;;;15.40;99.90;;;;;;5073147;28;19956;-68
2022/08/07 02:07:21;;;;;;;;;;;15.40;99.90;;;;;;5074374;28;19909;-68
2022/08/07 02:09:49;;;;;;;;;;;15.30;99.90;;;;;;5074310;28;20314;-68
2022/08/07 02:12:16;;;;;;;;;;;15.30;99.90;;;;;;5073803;28;19909;-68
2022/08/07 02:14:45;;;;;;;;;;;15.30;99.90;;;;;;5074294;28;19908;-69
2022/08/07 02:17:13;;;;;;;;;;;15.30;99.90;;;;;;5074321;28;19909;-68
2022/08/07 02:19:42;;;;;;;;;;;15.30;99.90;;;;;;5074373;28;20333;-68
2022/08/07 02:22:09;;;;;;;;;;;15.30;99.90;;;;;;5074065;28;20393;-68
2022/08/07 02:24:36;;;;;;;;;;;15.30;99.90;;;;;;5074027;28;19913;-68
2022/08/07 02:27:04;;;;;;;;;;;15.40;99.90;;;;;;5074036;28;19908;-68
2022/08/07 02:29:31;;;;;;;;;;;15.40;99.90;;;;;;5073958;28;19917;-68
2022/08/07 02:31:59;;;;;;;;;;;15.40;99.80;;;;;;5073986;28;19908;-68
2022/08/07 02:34:27;;;;;;;;;;;15.40;99.90;;;;;;5073778;28;19912;-68
2022/08/07 02:36:55;;;;;;;;;;;15.50;99.90;;;;;;5073698;28;20394;-68
2022/08/07 02:39:22;;;;;;;;;;;15.50;99.60;;;;;;5073837;28;19958;-68
2022/08/07 02:41:50;;;;;;;;;;;15.40;99.60;;;;;;5073818;28;19981;-68
2022/08/07 02:44:17;;;;;;;;;;;15.40;99.60;;;;;;5073455;28;20002;-68
2022/08/07 02:46:46;;;;;;;;;;;15.40;99.90;;;;;;5073765;28;19920;-68
2022/08/07 02:49:13;;;;;;;;;;;15.40;99.90;;;;;;5073530;28;19923;-68
2022/08/07 02:51:44;;;;;;;;;;;15.30;99.90;;;;;;5073264;28;21105;-68
2022/08/07 02:54:12;;;;;;;;;;;15.20;99.90;;;;;;5073440;28;20419;-68
2022/08/07 02:56:39;;;;;;;;;;;15.00;99.90;;;;;;5073731;28;19908;-67
2022/08/07 02:59:09;;;;;;;;;;;14.90;99.90;;;;;;5073637;28;19918;-68
2022/08/07 03:01:38;;;;;;;;;;;14.90;99.90;;;;;;5073549;28;19913;-68
2022/08/07 03:04:06;;;;;;;;;;;14.80;99.90;;;;;;5073394;28;19912;-68
2022/08/07 03:06:33;;;;;;;;;;;14.80;99.90;;;;;;5073503;28;19999;-68
2022/08/07 03:09:01;;;;;;;;;;;14.80;99.90;;;;;;5073492;28;20357;-68
2022/08/07 03:11:28;;;;;;;;;;;14.90;99.90;;;;;;5072480;28;20295;-69
2022/08/07 03:13:56;;;;;;;;;;;14.90;99.80;;;;;;5076665;28;19919;-68
2022/08/07 03:16:23;;;;;;;;;;;14.90;99.40;;;;;;5092269;28;19912;-67
2022/08/07 03:18:50;;;;;;;;;;;14.90;99.60;;;;;;5073068;28;19936;-68
2022/08/07 03:21:17;;;;;;;;;;;15.00;99.30;;;;;;5073288;28;19975;-68
2022/08/07 03:23:45;;;;;;;;;;;15.00;99.80;;;;;;5072604;28;19916;-68
2022/08/07 03:26:13;;;;;;;;;;;14.90;99.40;;;;;;5073093;28;19971;-68
2022/08/07 03:28:40;;;;;;;;;;;14.90;99.50;;;;;;5073091;28;19917;-68
2022/08/07 03:31:19;;;;;;;;;;;14.90;99.50;;;;;;5073014;28;20379;-68
2022/08/07 03:33:48;;;;;;;;;;;15.00;99.60;;;;;;5073194;28;20268;-68
2022/08/07 03:36:15;;;;;;;;;;;15.00;99.80;;;;;;5072873;28;20351;-68
2022/08/07 03:38:42;;;;;;;;;;;14.90;99.80;;;;;;5072892;28;19920;-69
2022/08/07 03:41:09;;;;;;;;;;;14.90;99.90;;;;;;5073218;28;19915;-68
2022/08/07 03:43:38;;;;;;;;;;;14.90;99.90;;;;;;5073047;28;20409;-68
2022/08/07 03:46:05;;;;;;;;;;;14.90;99.90;;;;;;5072713;28;19920;-69
2022/08/07 03:48:36;;;;;;;;;;;14.90;99.90;;;;;;5073036;28;19974;-68
2022/08/07 03:51:03;;;;;;;;;;;15.00;99.90;;;;;;5072912;28;19954;-68
2022/08/07 03:53:30;;;;;;;;;;;15.10;99.90;;;;;;5073029;28;19912;-68
2022/08/07 03:55:58;;;;;;;;;;;15.10;99.90;;;;;;5073388;28;20319;-68
2022/08/07 03:58:25;;;;;;;;;;;15.10;99.90;;;;;;5072819;28;19955;-68
2022/08/07 04:00:52;;;;;;;;;;;15.20;99.90;;;;;;5072870;28;19909;-68
2022/08/07 04:03:19;;;;;;;;;;;15.30;99.90;;;;;;5072946;28;19954;-68
2022/08/07 04:05:46;;;;;;;;;;;15.20;99.90;;;;;;5072814;28;19935;-68
2022/08/07 04:08:14;;;;;;;;;;;15.30;99.90;;;;;;5089861;28;19920;-68
2022/08/07 04:10:41;;;;;;;;;;;15.20;99.90;;;;;;5078493;28;19957;-68
2022/08/07 04:13:10;;;;;;;;;;;15.30;99.90;;;;;;5072699;28;20438;-69
2022/08/07 04:15:37;;;;;;;;;;;15.50;99.90;;;;;;5072921;28;19909;-68
2022/08/07 04:18:04;;;;;;;;;;;15.50;99.90;;;;;;5072755;28;19909;-68
2022/08/07 04:20:31;;;;;;;;;;;15.40;99.90;;;;;;5072746;28;19974;-68
2022/08/07 04:22:58;;;;;;;;;;;15.40;99.90;;;;;;5072656;28;19915;-68
2022/08/07 04:25:25;;;;;;;;;;;15.40;99.90;;;;;;5072745;28;20390;-68
2022/08/07 04:27:52;;;;;;;;;;;15.40;99.90;;;;;;5071790;28;19923;-68
2022/08/07 04:30:19;;;;;;;;;;;15.50;99.90;;;;;;5083650;28;19913;-68
2022/08/07 04:32:45;;;;;;;;;;;15.50;99.90;;;;;;5071860;28;19909;-68
2022/08/07 04:35:12;;;;;;;;;;;15.60;99.90;;;;;;5073494;28;19966;-69
2022/08/07 04:37:39;;;;;;;;;;;15.70;99.90;;;;;;5074205;28;20271;-69
2022/08/07 04:40:06;;;;;;;;;;;15.50;99.90;;;;;;5073951;28;19963;-69
2022/08/07 04:42:33;;;;;;;;;;;15.20;99.90;;;;;;5074278;28;20425;-68
2022/08/07 04:45:02;;;;;;;;;;;15.10;99.90;;;;;;5074025;28;19942;-68
2022/08/07 04:47:37;;;;;;;;;;;15.00;99.90;;;;;;5074346;28;19978;-68
2022/08/07 04:50:07;;;;;;;;;;;15.10;99.90;;;;;;5074819;28;20585;-68
2022/08/07 04:52:36;;;;;;;;;;;15.20;99.90;;;;;;5075699;28;19909;-68
2022/08/07 04:55:23;;;;;;;;;;;15.30;99.90;;;;;;5076087;28;19912;-68
2022/08/07 04:57:59;;;;;;;;;;;15.30;99.90;;;;;;5075998;28;19908;-68
2022/08/07 05:00:44;;;;;;;;;;;15.30;99.90;;;;;;5075832;28;20341;-68
2022/08/07 05:03:24;;;;;;;;;;;15.30;99.90;;;;;;5075783;28;19908;-68
2022/08/07 05:05:54;;;;;;;;;;;15.30;99.90;;;;;;5075769;28;19909;-69
2022/08/07 05:08:27;;;;;;;;;;;15.20;99.90;;;;;;5075400;28;19920;-68
2022/08/07 05:11:11;;;;;;;;;;;15.20;99.90;;;;;;5075563;28;19915;-69
2022/08/07 05:13:51;;;;;;;;;;;15.20;99.90;;;;;;5075579;28;19909;-68
2022/08/07 05:16:19;;;;;;;;;;;15.30;99.90;;;;;;5075336;28;19919;-69
2022/08/07 05:18:59;;;;;;;;;;;15.30;99.90;;;;;;5075287;28;19920;-68
2022/08/07 05:21:27;;;;;;;;;;;15.40;99.90;;;;;;5075343;28;19952;-68
2022/08/07 05:24:01;;;;;;;;;;;15.30;99.90;;;;;;5075335;28;19909;-68
2022/08/07 05:26:29;;;;;;;;;;;15.30;99.90;;;;;;5075353;28;19916;-68
2022/08/07 05:28:57;;;;;;;;;;;15.20;99.90;;;;;;5073827;28;20446;-68
2022/08/07 05:31:29;;;;;;;;;;;15.10;99.90;;;;;;5075376;28;20428;-69
2022/08/07 05:33:57;;;;;;;;;;;15.00;99.90;;;;;;5076251;28;19966;-68
2022/08/07 05:36:24;;;;;;;;;;;15.00;99.90;;;;;;5075115;28;19962;-68
2022/08/07 05:38:51;;;;;;;;;;;15.00;99.90;;;;;;5075098;28;19909;-68
2022/08/07 05:41:18;;;;;;;;;;;15.10;99.90;;;;;;5075097;28;19909;-68
2022/08/07 05:43:47;;;;;;;;;;;15.10;99.90;;;;;;5074798;28;20279;-68
2022/08/07 05:46:15;;;;;;;;;;;15.20;99.90;;;;;;5074071;28;19917;-68
2022/08/07 05:48:42;;;;;;;;;;;15.30;99.90;;;;;;5074678;28;19964;-68
2022/08/07 05:51:09;;;;;;;;;;;15.30;99.90;;;;;;5074773;28;20363;-69
2022/08/07 05:53:36;;;;;;;;;;;15.30;99.90;;;;;;5074803;28;20351;-69
2022/08/07 05:56:05;;;;;;;;;;;15.30;99.90;;;;;;5074422;28;20360;-68
2022/08/07 05:58:32;;;;;;;;;;;15.20;99.90;;;;;;5074618;28;20271;-68
2022/08/07 06:00:59;;;;;;;;;;;15.20;99.90;;;;;;5074610;28;19909;-68
2022/08/07 06:03:27;;;;;;;;;;;15.20;99.90;;;;;;5074520;28;19916;-68
2022/08/07 06:05:53;;;;;;;;;;;15.10;99.90;;;;;;5074494;28;19916;-68
2022/08/07 06:08:20;;;;;;;;;;;15.00;99.90;;;;;;5074072;28;20058;-68
2022/08/07 06:10:47;;;;;;;;;;;15.00;99.90;;;;;;5074479;28;19931;-68
2022/08/07 06:13:14;;;;;;;;;;;15.00;99.90;;;;;;5074565;28;19908;-68
2022/08/07 06:15:41;;;;;;;;;;;15.00;99.90;;;;;;5074349;28;19909;-68
2022/08/07 06:18:08;;;;;;;;;;;14.90;99.90;;;;;;5071405;28;19960;-68
2022/08/07 06:20:36;;;;;;;;;;;14.90;99.90;;;;;;5054157;28;20375;-68
2022/08/07 06:23:04;;;;;;;;;;;14.90;99.90;;;;;;5054257;28;19908;-68
2022/08/07 06:25:30;;;;;;;;;;;14.80;99.90;;;;;;5054179;28;20330;-68
2022/08/07 06:28:04;;;;;;;;;;;14.80;99.90;;;;;;5053997;28;19974;-68
2022/08/07 06:30:31;;;;;;;;;;;14.80;99.90;;;;;;5053974;28;19956;-68
2022/08/07 06:32:58;;;;;;;;;;;14.70;99.90;;;;;;5053419;28;19915;-68
2022/08/07 06:35:25;;;;;;;;;;;14.60;99.90;;;;;;5053962;28;20352;-68
2022/08/07 06:37:52;;;;;;;;;;;14.60;99.90;;;;;;5054041;28;19915;-68
2022/08/07 06:40:19;;;;;;;;;;;14.60;99.90;;;;;;5053635;28;19909;-68
2022/08/07 06:42:47;;;;;;;;;;;14.60;99.90;;;;;;5053729;28;20414;-68
2022/08/07 06:45:15;;;;;;;;;;;14.60;99.90;;;;;;5053563;28;19974;-68
2022/08/07 06:47:42;;;;;;;;;;;14.60;99.90;;;;;;5053175;28;19916;-68
2022/08/07 06:50:09;;;;;;;;;;;14.60;99.90;;;;;;5053433;28;19908;-68
2022/08/07 06:52:37;;;;;;;;;;;14.50;99.90;;;;;;5053544;28;19970;-68
2022/08/07 06:55:05;;;;;;;;;;;14.50;99.90;;;;;;5053552;28;19908;-68
2022/08/07 06:57:33;;;;;;;;;;;14.50;99.90;;;;;;5053454;28;19916;-68
2022/08/07 07:00:00;;;;;;;;;;;14.40;99.90;;;;;;5053533;28;19931;-68
2022/08/07 07:02:28;;;;;;;;;;;14.50;99.90;;;;;;5052937;28;20401;-67
2022/08/07 07:04:54;;;;;;;;;;;14.50;99.90;;;;;;5053379;28;19939;-67
2022/08/07 07:07:21;;;;;;;;;;;14.50;99.90;;;;;;5053310;28;19963;-68
2022/08/07 07:09:48;;;;;;;;;;;14.40;99.90;;;;;;5053527;28;19960;-67
2022/08/07 07:12:21;;;;;;;;;;;14.40;99.90;;;;;;5053674;28;19909;-68
2022/08/07 07:14:55;;;;;;;;;;;14.40;99.90;;;;;;5053447;28;20008;-68
2022/08/07 07:17:34;;;;;;;;;;;14.40;99.90;;;;;;5052765;28;20011;-67
2022/08/07 07:20:03;;;;;;;;;;;14.30;99.90;;;;;;5053050;28;19909;-67
2022/08/07 07:22:30;;;;;;;;;;;14.30;99.90;;;;;;5053220;28;19917;-68
2022/08/07 07:24:57;;;;;;;;;;;14.20;99.90;;;;;;5053195;28;19913;-68
2022/08/07 07:27:25;;;;;;;;;;;14.20;99.90;;;;;;5053152;28;19970;-68
2022/08/07 07:29:56;;;;;;;;;;;14.20;99.90;;;;;;5053130;28;19990;-68
2022/08/07 07:32:24;;;;;;;;;;;14.10;99.90;;;;;;5052376;28;19908;-68
2022/08/07 07:34:53;;;;;;;;;;;14.10;99.90;;;;;;5053060;28;19909;-68
2022/08/07 07:37:20;;;;;;;;;;;14.10;99.90;;;;;;5053140;28;20368;-68
2022/08/07 07:39:47;;;;;;;;;;;14.10;99.90;;;;;;5053369;28;19991;-68
2022/08/07 07:42:15;;;;;;;;;;;14.00;99.90;;;;;;5052973;28;19913;-67
2022/08/07 07:44:44;;;;;;;;;;;14.00;99.90;;;;;;5052839;28;20445;-67
2022/08/07 07:47:13;;;;;;;;;;;14.00;99.90;;;;;;5052578;28;19995;-68
2022/08/07 07:49:40;;;;;;;;;;;14.00;99.90;;;;;;5050417;28;20385;-68
2022/08/07 07:52:08;;;;;;;;;;;14.00;99.90;;;;;;5052572;28;19920;-68
2022/08/07 07:54:35;;;;;;;;;;;14.00;99.90;;;;;;5052976;28;19916;-68
2022/08/07 07:57:03;;;;;;;;;;;14.00;99.90;;;;;;5051792;28;19909;-68
2022/08/07 07:59:30;;;;;;;;;;;13.90;99.90;;;;;;5052869;28;19909;-68
2022/08/07 08:01:58;;;;;;;;;;;14.00;99.90;;;;;;5052245;28;19916;-69
2022/08/07 08:04:26;;;;;;;;;;;13.90;99.90;;;;;;5050242;28;19964;-68
2022/08/07 08:06:54;;;;;;;;;;;13.90;99.90;;;;;;5050759;28;19951;-68
2022/08/07 08:09:25;;;;;;;;;;;13.90;99.90;;;;;;5052081;28;20004;-68
2022/08/07 08:11:52;;;;;;;;;;;13.90;99.90;;;;;;5054645;28;19909;-69
2022/08/07 08:14:20;;;;;;;;;;;13.80;99.90;;;;;;5054075;28;19916;-68
2022/08/07 08:16:47;;;;;;;;;;;13.80;99.90;;;;;;5053590;28;19915;-68
2022/08/07 08:19:15;;;;;;;;;;;13.90;99.90;;;;;;5054279;28;20004;-68
2022/08/07 08:27:16;;;;;;;;;;;13.80;99.90;;;;;;5054416;28;19938;-68
2022/08/07 08:29:43;;;;;;;;;;;13.80;99.90;;;;;;5053318;28;19928;-68
2022/08/07 08:32:11;;;;;;;;;;;13.80;99.90;;;;;;5053970;28;19930;-68
2022/08/07 08:34:39;;;;;;;;;;;13.80;99.90;;;;;;5053885;28;19909;-67
2022/08/07 08:37:07;;;;;;;;;;;13.80;99.90;;;;;;5054011;28;20439;-68
2022/08/07 08:39:34;;;;;;;;;;;13.80;99.90;;;;;;5053836;28;19916;-68
2022/08/07 08:42:05;;;;;;;;;;;13.80;99.90;;;;;;5053768;28;19909;-68
2022/08/07 08:44:50;;;;;;;;;;;13.80;99.90;;;;;;5053034;28;20013;-68
2022/08/07 08:47:21;;;;;;;;;;;13.80;99.90;;;;;;5053977;28;19912;-68
2022/08/07 08:50:06;;;;;;;;;;;13.80;99.90;;;;;;5053678;28;20020;-68
2022/08/07 08:52:38;;;;;;;;;;;13.70;99.90;;;;;;5053791;28;20103;-68
2022/08/07 08:55:08;;;;;;;;;;;13.70;99.90;;;;;;5053685;28;19909;-68
2022/08/07 08:57:46;;;;;;;;;;;13.70;99.90;;;;;;5053331;28;19913;-68
2022/08/07 09:00:13;;;;;;;;;;;13.70;99.90;;;;;;5053319;28;19913;-68
2022/08/07 09:03:09;;;;;;;;;;;13.70;99.90;;;;;;5053375;28;20007;-68
2022/08/07 09:05:38;;;;;;;;;;;13.70;99.90;;;;;;5048605;28;20290;-68
2022/08/07 09:08:18;;;;;;;;;;;13.70;99.90;;;;;;5053184;28;19920;-68
2022/08/07 09:10:54;;;;;;;;;;;13.70;99.90;;;;;;5053074;28;19912;-68
2022/08/07 09:13:39;;;;;;;;;;;13.60;99.90;;;;;;5053600;28;19957;-67
2022/08/07 09:16:07;;;;;;;;;;;13.60;99.90;;;;;;5052815;28;19996;-68
2022/08/07 09:18:33;;;;;;;;;;;13.60;99.90;;;;;;5053300;28;19913;-68
2022/08/07 09:21:11;;;;;;;;;;;13.60;99.90;;;;;;5051984;28;20050;-68
2022/08/07 09:23:41;;;;;;;;;;;13.50;99.90;;;;;;5052940;28;19916;-67
2022/08/07 09:26:18;;;;;;;;;;;13.50;99.90;;;;;;5052934;28;19909;-67
2022/08/07 09:28:51;;;;;;;;;;;13.50;99.90;;;;;;5052983;28;19917;-67
2022/08/07 09:31:18;;;;;;;;;;;13.50;99.90;;;;;;5052898;28;20375;-67
2022/08/07 09:34:02;;;;;;;;;;;13.50;99.90;;;;;;5052761;28;20352;-68
2022/08/07 09:36:32;;;;;;;;;;;13.40;99.90;;;;;;5052932;28;19913;-69
2022/08/07 09:39:17;;;;;;;;;;;13.40;99.90;;;;;;5052862;28;19909;-68
2022/08/07 09:41:46;;;;;;;;;;;13.40;99.90;;;;;;5052771;28;19937;-69
2022/08/07 09:44:37;;;;;;;;;;;13.30;99.90;;;;;;5051794;28;19917;-69
2022/08/07 09:47:07;;;;;;;;;;;13.30;99.90;;;;;;5052892;28;20004;-69
2022/08/07 09:49:42;;;;;;;;;;;13.20;99.90;;;;;;5052303;28;19994;-69
2022/08/07 09:52:23;;;;;;;;;;;13.20;99.90;;;;;;5052854;28;20279;-69
2022/08/07 09:54:56;;;;;;;;;;;13.30;99.90;;;;;;5052501;28;19909;-69
2022/08/07 09:57:22;;;;;;;;;;;13.30;99.90;;;;;;5084516;28;20424;-69
2022/08/07 10:00:02;;;;;;;;;;;13.30;99.90;;;;;;5052092;28;19917;-69
2022/08/07 10:02:38;;;;;;;;;;;13.30;99.90;;;;;;5051900;28;19913;-69
2022/08/07 10:05:05;;;;;;;;;;;13.30;99.90;;;;;;5052330;28;19913;-69
2022/08/07 10:07:46;;;;;;;;;;;13.40;99.90;;;;;;5052251;28;20007;-69
2022/08/07 10:10:20;;;;;;;;;;;13.30;99.90;;;;;;5052076;28;19920;-69
2022/08/07 10:12:47;;;;;;;;;;;13.40;99.90;;;;;;5052223;28;19913;-69
2022/08/07 10:15:32;;;;;;;;;;;13.40;99.90;;;;;;5083357;28;19912;-69
2022/08/07 10:18:01;;;;;;;;;;;13.30;99.90;;;;;;5052312;28;19913;-69
2022/08/07 10:20:37;;;;;;;;;;;13.30;99.90;;;;;;5052639;28;20326;-69
2022/08/07 10:23:22;;;;;;;;;;;13.30;99.90;;;;;;5052012;28;19909;-69
2022/08/07 10:26:01;;;;;;;;;;;13.20;99.90;;;;;;5052090;28;19920;-69
2022/08/07 10:28:27;;;;;;;;;;;13.20;99.90;;;;;;5050958;28;19917;-69
2022/08/07 10:30:57;;;;;;;;;;;13.20;99.90;;;;;;5051840;28;20007;-69
2022/08/07 10:33:42;;;;;;;;;;;13.10;99.90;;;;;;5051406;28;19978;-68
2022/08/07 10:36:08;;;;;;;;;;;13.10;99.90;;;;;;5051446;28;19912;-68
2022/08/07 10:38:38;;;;;;;;;;;13.10;99.90;;;;;;5051794;28;19912;-68
2022/08/07 10:41:23;;;;;;;;;;;13.00;99.90;;;;;;5051386;28;19913;-68
2022/08/07 10:44:02;;;;;;;;;;;13.00;99.90;;;;;;5051011;28;20362;-68
2022/08/07 10:46:35;;;;;;;;;;;12.90;99.90;;;;;;5051621;28;20290;-68
2022/08/07 10:49:09;;;;;;;;;;;13.00;99.90;;;;;;5051685;28;20015;-68
2022/08/07 10:51:55;;;;;;;;;;;12.90;99.90;;;;;;5051661;28;19913;-69
2022/08/07 10:54:34;;;;;;;;;;;12.90;99.90;;;;;;5046772;28;20359;-68
2022/08/07 10:57:10;;;;;;;;;;;12.90;99.90;;;;;;5051963;28;19916;-68
2022/08/07 10:59:46;;;;;;;;;;;12.90;99.90;;;;;;5050883;28;19966;-68
2022/08/07 11:02:28;;;;;;;;;;;12.90;99.90;;;;;;5051116;28;19909;-69
2022/08/07 11:05:00;;;;;;;;;;;12.80;99.90;;;;;;5051439;28;20417;-68
2022/08/07 11:07:27;;;;;;;;;;;12.80;99.90;;;;;;5051003;28;20348;-68
2022/08/07 11:09:56;;;;;;;;;;;12.80;99.90;;;;;;5051118;28;19927;-69
2022/08/07 11:12:43;;;;;;;;;;;12.80;99.90;;;;;;5050984;28;20338;-69
2022/08/07 11:15:17;;;;;;;;;;;12.80;99.90;;;;;;5050843;28;20264;-69
2022/08/07 11:17:49;;;;;;;;;;;12.80;99.90;;;;;;5050985;28;20248;-69
2022/08/07 11:20:21;;;;;;;;;;;12.80;99.90;;;;;;5082653;28;19932;-69
2022/08/07 11:22:51;;;;;;;;;;;12.70;99.90;;;;;;5051167;28;19916;-69
2022/08/07 11:25:18;;;;;;;;;;;12.70;99.90;;;;;;5051203;28;19958;-68
2022/08/07 11:27:50;;;;;;;;;;;12.60;99.90;;;;;;5050491;28;19920;-69
2022/08/07 11:30:17;;;;;;;;;;;12.70;99.90;;;;;;5049394;28;19990;-69
2022/08/07 11:33:10;;;;;;;;;;;12.60;99.90;;;;;;5050495;28;19955;-69
2022/08/07 11:35:54;;;;;;;;;;;12.60;99.90;;;;;;5042648;28;19920;-69
2022/08/07 11:38:26;;;;;;;;;;;12.50;99.90;;;;;;5050839;28;20409;-69
2022/08/07 11:40:59;;;;;;;;;;;12.50;99.90;;;;;;5049714;28;19909;-69
2022/08/07 11:43:40;;;;;;;;;;;12.40;99.90;;;;;;5050502;28;19955;-69
2022/08/07 11:46:09;;;;;;;;;;;12.40;99.90;;;;;;5054531;28;20023;-69
2022/08/07 11:48:45;;;;;;;;;;;12.40;99.90;;;;;;5054913;28;19924;-69
2022/08/07 11:51:21;;;;;;;;;;;12.40;99.90;;;;;;5055068;28;19919;-69
2022/08/07 11:53:52;;;;;;;;;;;12.30;99.90;;;;;;5055385;28;19978;-69
2022/08/07 11:56:24;;;;;;;;;;;12.30;99.90;;;;;;5054549;28;19919;-69
2022/08/07 11:58:59;;;;;;;;;;;12.30;99.90;;;;;;5054556;28;19956;-69
2022/08/07 12:01:29;;;;;;;;;;;12.30;99.90;;;;;;5054688;28;19913;-70
2022/08/07 12:04:05;;;;;;;;;;;12.30;99.90;;;;;;5087604;28;19955;-69
2022/08/07 12:06:31;;;;;;;;;;;12.20;99.90;;;;;;5089065;28;19963;-69
2022/08/07 12:09:04;;;;;;;;;;;12.20;99.90;;;;;;5056765;28;19970;-69
2022/08/07 12:11:34;;;;;;;;;;;12.30;99.90;;;;;;5056821;28;19909;-69
2022/08/07 12:14:07;;;;;;;;;;;12.30;99.90;;;;;;5057448;28;19913;-69
2022/08/07 12:16:35;;;;;;;;;;;12.30;99.90;;;;;;5056019;28;19913;-69
2022/08/07 12:19:06;;;;;;;;;;;12.20;99.90;;;;;;5056776;28;19916;-70
2022/08/07 12:21:39;;;;;;;;;;;12.30;99.90;;;;;;5056553;28;19916;-69
2022/08/07 12:24:08;;;;;;;;;;;12.20;99.90;;;;;;5056399;28;19909;-70
2022/08/07 12:26:44;;;;;;;;;;;12.20;99.90;;;;;;5056364;28;20299;-70
2022/08/07 12:29:17;;;;;;;;;;;12.10;99.90;;;;;;5056299;28;20291;-69
2022/08/07 12:31:49;;;;;;;;;;;12.10;99.90;;;;;;5055715;28;19916;-70
2022/08/07 12:34:18;;;;;;;;;;;12.20;99.90;;;;;;5056303;28;19915;-70
2022/08/07 12:36:45;;;;;;;;;;;12.10;99.90;;;;;;5056335;28;20356;-69
2022/08/07 12:39:12;;;;;;;;;;;12.10;99.90;;;;;;5056310;28;20040;-69
2022/08/07 12:41:40;;;;;;;;;;;12.10;99.90;;;;;;5056599;28;19944;-69
2022/08/07 12:44:09;;;;;;;;;;;12.10;99.90;;;;;;5055661;28;19921;-69
2022/08/07 12:46:54;;;;;;;;;;;12.00;99.90;;;;;;5056755;28;19913;-69
2022/08/07 12:49:39;;;;;;;;;;;12.00;99.90;;;;;;5056522;28;19917;-69
2022/08/07 12:52:09;;;;;;;;;;;11.80;99.90;;;;;;5055925;28;20005;-70
2022/08/07 12:54:39;;;;;;;;;;;11.70;99.90;;;;;;5055769;28;19967;-69
2022/08/07 12:57:07;;;;;;;;;;;11.70;99.90;;;;;;5055941;28;19908;-69
2022/08/07 12:59:35;;;;;;;;;;;11.70;99.90;;;;;;5055992;28;19913;-69
2022/08/07 13:02:02;;;;;;;;;;;11.60;99.90;;;;;;5055691;28;19948;-71
2022/08/07 13:04:31;;;;;;;;;;;11.60;99.90;;;;;;5055871;28;19909;-69
2022/08/07 13:07:16;;;;;;;;;;;11.50;99.90;;;;;;5056141;28;19951;-69
2022/08/07 13:09:42;;;;;;;;;;;11.60;99.90;;;;;;5055955;28;19917;-69
2022/08/07 13:12:28;;;;;;;;;;;11.60;99.90;;;;;;5055669;28;19961;-69
2022/08/07 13:15:03;;;;;;;;;;;11.60;99.90;;;;;;5056032;28;19908;-68
2022/08/07 13:17:34;;;;;;;;;;;11.60;99.90;;;;;;5055953;28;20394;-69
2022/08/07 13:20:07;;;;;;;;;;;11.70;99.90;;;;;;5057503;28;19909;-69
2022/08/07 13:23:00;;;;;;;;;;;11.70;99.90;;;;;;5057594;28;19908;-69
2022/08/07 13:25:49;;;;;;;;;;;11.70;99.90;;;;;;5055913;28;19936;-69
2022/08/07 13:28:19;;;;;;;;;;;11.70;99.90;;;;;;5056506;28;19913;-69
2022/08/07 13:31:00;;;;;;;;;;;11.70;99.90;;;;;;5063143;28;19943;-69
2022/08/07 13:33:38;;;;;;;;;;;11.70;99.90;;;;;;5056265;28;19963;-69
2022/08/07 13:36:33;;;;;;;;;;;11.70;99.90;;;;;;5055459;28;19916;-69
2022/08/07 13:39:00;;;;;;;;;;;11.70;99.90;;;;;;5050501;28;20346;-69
2022/08/07 13:41:38;;;;;;;;;;;11.70;99.90;;;;;;5055437;28;20478;-69
2022/08/07 13:44:06;;;;;;;;;;;11.60;99.90;;;;;;5054830;28;19919;-69
2022/08/07 13:46:36;;;;;;;;;;;11.60;99.90;;;;;;5055056;28;20000;-68
2022/08/07 13:49:04;;;;;;;;;;;11.50;99.90;;;;;;5055042;28;19920;-69
2022/08/07 13:51:35;;;;;;;;;;;11.50;99.90;;;;;;5055126;28;19920;-69
2022/08/07 13:54:12;;;;;;;;;;;11.50;99.90;;;;;;5054710;28;20244;-69
2022/08/07 13:56:39;;;;;;;;;;;11.50;99.90;;;;;;5054902;28;20386;-66
2022/08/07 13:59:14;;;;;;;;;;;11.50;99.90;;;;;;5054908;28;19991;-69
2022/08/07 14:01:48;;;;;;;;;;;11.50;99.90;;;;;;5054653;28;20030;-69
2022/08/07 14:04:15;;;;;;;;;;;11.50;99.90;;;;;;5054568;28;20394;-68
2022/08/07 14:06:48;;;;;;;;;;;11.40;99.90;;;;;;5054127;28;20412;-69
2022/08/07 14:09:24;;;;;;;;;;;11.40;99.90;;;;;;5054773;28;19923;-68
2022/08/07 14:11:56;;;;;;;;;;;11.40;99.90;;;;;;5054624;28;19932;-69
2022/08/07 14:14:30;;;;;;;;;;;11.40;99.90;;;;;;5054437;28;19908;-68
2022/08/07 14:16:58;;;;;;;;;;;11.50;99.90;;;;;;5054329;28;20268;-67
2022/08/07 14:19:35;;;;;;;;;;;11.50;99.90;;;;;;5054321;28;19909;-69
2022/08/07 14:22:05;;;;;;;;;;;11.60;99.90;;;;;;5054228;28;20287;-69
2022/08/07 14:24:37;;;;;;;;;;;11.60;99.90;;;;;;5054395;28;19931;-69
2022/08/07 14:27:12;;;;;;;;;;;11.50;99.90;;;;;;5054249;28;19916;-69
2022/08/07 14:30:00;;;;;;;;;;;11.60;99.90;;;;;;5054197;28;19921;-69
2022/08/07 14:32:28;;;;;;;;;;;11.60;99.90;;;;;;5054008;28;19916;-70
2022/08/07 14:34:58;;;;;;;;;;;11.50;99.90;;;;;;5054198;28;20008;-68
2022/08/07 14:37:25;;;;;;;;;;;11.60;99.90;;;;;;5054074;28;20046;-68
2022/08/07 14:39:52;;;;;;;;;;;11.60;99.90;;;;;;5053951;28;20313;-68
2022/08/07 14:42:22;;;;;;;;;;;11.60;99.90;;;;;;5053705;28;19915;-68